sensor_id;sensor_type;location;lat;lon;timestamp;temperature;humidity
14755;DHT22;7469;50.906;6.952;2022-09-09T00:00:20;17.70;99.90
14755;DHT22;7469;50.906;6.952;2022-09-09T00:02:55;17.70;99.90
14755;DHT22;7469;50.906;6.952;2022-09-09T00:05:32;17.70;99.90
14755;DHT22;7469;50.906;6.952;2022-09-09T00:08:04;17.70;99.90
14755;DHT22;7469;50.906;6.952;2022-09-09T00:10:34;17.60;99.90
14755;DHT22;7469;50.906;6.952;2022-09-09T00:13:14;17.50;99.90
14755;DHT22;7469;50.906;6.952;2022-09-09T00:15:49;17.50;99.90
14755;DHT22;7469;50.906;6.952;2022-09-09T00:18:24;17.40;99.90
14755;DHT22;7469;50.906;6.952;2022-09-09T00:20:59;17.40;99.90
14755;DHT22;7469;50.906;6.952;2022-09-09T00:23:32;17.30;99.90
14755;DHT22;7469;50.906;6.952;2022-09-09T00:26:05;17.20;99.90
14755;DHT22;7469;50.906;6.952;2022-09-09T00:28:39;17.20;99.90
14755;DHT22;7469;50.906;6.952;2022-09-09T00:31:15;17.20;99.90
14755;DHT22;7469;50.906;6.952;2022-09-09T00:33:45;17.20;99.90
14755;DHT22;7469;50.906;6.952;2022-09-09T00:36:18;17.10;99.90
14755;DHT22;7469;50.906;6.952;2022-09-09T00:38:52;17.20;99.90
14755;DHT22;7469;50.906;6.952;2022-09-09T00:41:29;17.20;99.90
14755;DHT22;7469;50.906;6.952;2022-09-09T00:44:01;17.20;99.90
14755;DHT22;7469;50.906;6.952;2022-09-09T00:46:45;17.20;99.90
14755;DHT22;7469;50.906;6.952;2022-09-09T00:49:26;17.30;99.90
14755;DHT22;7469;50.906;6.952;2022-09-09T00:52:08;17.30;99.90
14755;DHT22;7469;50.906;6.952;2022-09-09T00:54:45;17.30;99.90
14755;DHT22;7469;50.906;6.952;2022-09-09T00:57:25;17.30;99.90
14755;DHT22;7469;50.906;6.952;2022-09-09T01:00:18;17.30;99.90
14755;DHT22;7469;50.906;6.952;2022-09-09T01:02:53;17.30;99.90
14755;DHT22;7469;50.906;6.952;2022-09-09T01:05:30;17.30;99.90
14755;DHT22;7469;50.906;6.952;2022-09-09T01:08:10;17.20;99.90
14755;DHT22;7469;50.906;6.952;2022-09-09T01:10:44;17.20;99.90
14755;DHT22;7469;50.906;6.952;2022-09-09T01:13:22;17.20;99.90
14755;DHT22;7469;50.906;6.952;2022-09-09T01:15:50;17.20;99.90
14755;DHT22;7469;50.906;6.952;2022-09-09T01:18:29;17.20;99.90
14755;DHT22;7469;50.906;6.952;2022-09-09T01:21:06;17.20;99.90
14755;DHT22;7469;50.906;6.952;2022-09-09T01:24:03;17.20;99.90
14755;DHT22;7469;50.906;6.952;2022-09-09T01:26:34;17.10;99.90
14755;DHT22;7469;50.906;6.952;2022-09-09T01:29:04;17.10;99.90
14755;DHT22;7469;50.906;6.952;2022-09-09T01:31:37;17.00;99.90
14755;DHT22;7469;50.906;6.952;2022-09-09T01:34:10;17.00;99.90
14755;DHT22;7469;50.906;6.952;2022-09-09T01:36:42;16.90;99.90
14755;DHT22;7469;50.906;6.952;2022-09-09T01:39:10;16.90;99.90
14755;DHT22;7469;50.906;6.952;2022-09-09T01:41:40;16.90;99.90
14755;DHT22;7469;50.906;6.952;2022-09-09T01:44:08;16.80;99.90
14755;DHT22;7469;50.906;6.952;2022-09-09T01:46:37;16.80;99.90
14755;DHT22;7469;50.906;6.952;2022-09-09T01:49:06;16.80;99.90
14755;DHT22;7469;50.906;6.952;2022-09-09T01:51:35;16.80;99.90
14755;DHT22;7469;50.906;6.952;2022-09-09T01:54:04;16.80;99.90
14755;DHT22;7469;50.906;6.952;2022-09-09T01:56:42;16.80;99.90
14755;DHT22;7469;50.906;6.952;2022-09-09T01:59:28;16.80;99.90
14755;DHT22;7469;50.906;6.952;2022-09-09T02:02:08;16.80;99.90
14755;DHT22;7469;50.906;6.952;2022-09-09T02:04:39;16.90;99.90
14755;DHT22;7469;50.906;6.952;2022-09-09T02:07:19;16.90;99.90
14755;DHT22;7469;50.906;6.952;2022-09-09T02:09:57;16.90;99.90
14755;DHT22;7469;50.906;6.952;2022-09-09T02:12:28;16.90;99.90
14755;DHT22;7469;50.906;6.952;2022-09-09T02:15:01;16.90;99.90
14755;DHT22;7469;50.906;6.952;2022-09-09T02:17:32;16.90;99.90
14755;DHT22;7469;50.906;6.952;2022-09-09T02:20:05;16.90;99.90
14755;DHT22;7469;50.906;6.952;2022-09-09T02:22:34;17.00;99.90
14755;DHT22;7469;50.906;6.952;2022-09-09T02:25:08;17.00;99.90
14755;DHT22;7469;50.906;6.952;2022-09-09T02:27:40;17.00;99.90
14755;DHT22;7469;50.906;6.952;2022-09-09T02:30:11;17.00;99.90
14755;DHT22;7469;50.906;6.952;2022-09-09T02:32:42;17.00;99.90
14755;DHT22;7469;50.906;6.952;2022-09-09T02:35:12;17.00;99.90
14755;DHT22;7469;50.906;6.952;2022-09-09T02:37:43;17.00;99.90
14755;DHT22;7469;50.906;6.952;2022-09-09T02:40:14;17.00;99.90
14755;DHT22;7469;50.906;6.952;2022-09-09T02:42:45;17.00;99.90
14755;DHT22;7469;50.906;6.952;2022-09-09T02:45:16;17.00;99.90
14755;DHT22;7469;50.906;6.952;2022-09-09T02:47:50;17.00;99.90
14755;DHT22;7469;50.906;6.952;2022-09-09T02:50:23;17.00;99.90
14755;DHT22;7469;50.906;6.952;2022-09-09T02:53:02;17.00;99.90
14755;DHT22;7469;50.906;6.952;2022-09-09T02:55:38;17.00;99.90
14755;DHT22;7469;50.906;6.952;2022-09-09T02:58:09;17.00;99.90
14755;DHT22;7469;50.906;6.952;2022-09-09T03:00:39;17.00;99.90
14755;DHT22;7469;50.906;6.952;2022-09-09T03:03:08;17.00;99.90
14755;DHT22;7469;50.906;6.952;2022-09-09T03:05:36;17.00;99.90
14755;DHT22;7469;50.906;6.952;2022-09-09T03:08:05;17.00;99.90
14755;DHT22;7469;50.906;6.952;2022-09-09T03:10:33;17.10;99.90
14755;DHT22;7469;50.906;6.952;2022-09-09T03:13:01;17.10;99.90
14755;DHT22;7469;50.906;6.952;2022-09-09T03:15:32;17.10;99.90
14755;DHT22;7469;50.906;6.952;2022-09-09T03:18:00;17.10;99.90
14755;DHT22;7469;50.906;6.952;2022-09-09T03:20:29;17.10;99.90
14755;DHT22;7469;50.906;6.952;2022-09-09T03:22:59;17.10;99.90
14755;DHT22;7469;50.906;6.952;2022-09-09T03:25:27;17.10;99.90
14755;DHT22;7469;50.906;6.952;2022-09-09T03:27:55;17.20;99.90
14755;DHT22;7469;50.906;6.952;2022-09-09T03:30:24;17.20;99.90
14755;DHT22;7469;50.906;6.952;2022-09-09T03:32:54;17.20;99.90
14755;DHT22;7469;50.906;6.952;2022-09-09T03:35:23;17.20;99.90
14755;DHT22;7469;50.906;6.952;2022-09-09T03:37:51;17.20;99.90
14755;DHT22;7469;50.906;6.952;2022-09-09T03:40:19;17.20;99.90
14755;DHT22;7469;50.906;6.952;2022-09-09T03:42:47;17.20;99.90
14755;DHT22;7469;50.906;6.952;2022-09-09T03:45:15;17.20;99.90
14755;DHT22;7469;50.906;6.952;2022-09-09T03:47:43;17.20;99.90
14755;DHT22;7469;50.906;6.952;2022-09-09T03:50:12;17.20;99.90
14755;DHT22;7469;50.906;6.952;2022-09-09T03:52:42;17.20;99.90
14755;DHT22;7469;50.906;6.952;2022-09-09T03:55:10;17.20;99.90
14755;DHT22;7469;50.906;6.952;2022-09-09T03:57:38;17.20;99.90
14755;DHT22;7469;50.906;6.952;2022-09-09T04:00:08;17.20;99.90
14755;DHT22;7469;50.906;6.952;2022-09-09T04:02:36;17.20;99.90
14755;DHT22;7469;50.906;6.952;2022-09-09T04:05:04;17.20;99.90
14755;DHT22;7469;50.906;6.952;2022-09-09T04:07:34;17.20;99.90
14755;DHT22;7469;50.906;6.952;2022-09-09T04:10:03;17.20;99.90
14755;DHT22;7469;50.906;6.952;2022-09-09T04:12:31;17.20;99.90
14755;DHT22;7469;50.906;6.952;2022-09-09T04:14:58;17.20;99.90
14755;DHT22;7469;50.906;6.952;2022-09-09T04:17:27;17.20;99.90
14755;DHT22;7469;50.906;6.952;2022-09-09T04:19:55;17.20;99.90
14755;DHT22;7469;50.906;6.952;2022-09-09T04:22:23;17.20;99.90
14755;DHT22;7469;50.906;6.952;2022-09-09T04:24:52;17.20;99.90
14755;DHT22;7469;50.906;6.952;2022-09-09T04:27:20;17.20;99.90
14755;DHT22;7469;50.906;6.952;2022-09-09T04:29:48;17.20;99.90
14755;DHT22;7469;50.906;6.952;2022-09-09T04:32:16;17.20;99.90
14755;DHT22;7469;50.906;6.952;2022-09-09T04:34:44;17.20;99.90
14755;DHT22;7469;50.906;6.952;2022-09-09T04:37:14;17.20;99.90
14755;DHT22;7469;50.906;6.952;2022-09-09T04:39:43;17.20;99.90
14755;DHT22;7469;50.906;6.952;2022-09-09T04:42:13;17.20;99.90
14755;DHT22;7469;50.906;6.952;2022-09-09T04:44:41;17.20;99.90
14755;DHT22;7469;50.906;6.952;2022-09-09T04:47:08;17.20;99.90
14755;DHT22;7469;50.906;6.952;2022-09-09T04:49:36;17.20;99.90
14755;DHT22;7469;50.906;6.952;2022-09-09T04:52:05;17.20;99.90
14755;DHT22;7469;50.906;6.952;2022-09-09T04:54:33;17.20;99.90
14755;DHT22;7469;50.906;6.952;2022-09-09T04:57:00;17.20;99.90
14755;DHT22;7469;50.906;6.952;2022-09-09T04:59:30;17.10;99.90
14755;DHT22;7469;50.906;6.952;2022-09-09T05:01:57;17.20;99.90
14755;DHT22;7469;50.906;6.952;2022-09-09T05:04:27;17.20;99.90
14755;DHT22;7469;50.906;6.952;2022-09-09T05:06:56;17.20;99.90
14755;DHT22;7469;50.906;6.952;2022-09-09T05:09:24;17.20;99.90
14755;DHT22;7469;50.906;6.952;2022-09-09T05:11:52;17.20;99.90
14755;DHT22;7469;50.906;6.952;2022-09-09T05:14:20;17.20;99.90
14755;DHT22;7469;50.906;6.952;2022-09-09T05:16:50;17.20;99.90
14755;DHT22;7469;50.906;6.952;2022-09-09T05:19:18;17.20;99.90
14755;DHT22;7469;50.906;6.952;2022-09-09T05:21:46;17.20;99.90
14755;DHT22;7469;50.906;6.952;2022-09-09T05:24:14;17.30;99.90
14755;DHT22;7469;50.906;6.952;2022-09-09T05:26:42;17.30;99.90
14755;DHT22;7469;50.906;6.952;2022-09-09T05:29:10;17.30;99.90
14755;DHT22;7469;50.906;6.952;2022-09-09T05:31:38;17.30;99.90
14755;DHT22;7469;50.906;6.952;2022-09-09T05:34:09;17.30;99.90
14755;DHT22;7469;50.906;6.952;2022-09-09T05:36:37;17.30;99.90
14755;DHT22;7469;50.906;6.952;2022-09-09T05:39:05;17.30;99.90
14755;DHT22;7469;50.906;6.952;2022-09-09T05:41:33;17.30;99.90
14755;DHT22;7469;50.906;6.952;2022-09-09T05:44:02;17.30;99.90
14755;DHT22;7469;50.906;6.952;2022-09-09T05:46:30;17.30;99.90
14755;DHT22;7469;50.906;6.952;2022-09-09T05:48:58;17.30;99.90
14755;DHT22;7469;50.906;6.952;2022-09-09T05:51:28;17.30;99.90
14755;DHT22;7469;50.906;6.952;2022-09-09T05:53:57;17.30;99.90
14755;DHT22;7469;50.906;6.952;2022-09-09T05:56:27;17.30;99.90
14755;DHT22;7469;50.906;6.952;2022-09-09T05:58:56;17.30;99.90
14755;DHT22;7469;50.906;6.952;2022-09-09T06:01:25;17.40;99.90
14755;DHT22;7469;50.906;6.952;2022-09-09T06:03:54;17.40;99.90
14755;DHT22;7469;50.906;6.952;2022-09-09T06:06:24;17.50;99.90
14755;DHT22;7469;50.906;6.952;2022-09-09T06:08:55;17.50;99.90
14755;DHT22;7469;50.906;6.952;2022-09-09T06:11:26;17.50;99.90
14755;DHT22;7469;50.906;6.952;2022-09-09T06:13:54;17.60;99.90
14755;DHT22;7469;50.906;6.952;2022-09-09T06:16:23;17.60;99.90
14755;DHT22;7469;50.906;6.952;2022-09-09T06:18:52;17.60;99.90
14755;DHT22;7469;50.906;6.952;2022-09-09T06:21:22;17.70;99.90
14755;DHT22;7469;50.906;6.952;2022-09-09T06:23:50;17.70;99.90
14755;DHT22;7469;50.906;6.952;2022-09-09T06:26:29;17.70;99.90
14755;DHT22;7469;50.906;6.952;2022-09-09T06:28:57;17.70;99.90
14755;DHT22;7469;50.906;6.952;2022-09-09T06:31:27;17.80;99.90
14755;DHT22;7469;50.906;6.952;2022-09-09T06:33:58;17.70;99.90
14755;DHT22;7469;50.906;6.952;2022-09-09T06:36:27;17.70;99.90
14755;DHT22;7469;50.906;6.952;2022-09-09T06:38:56;17.70;99.90
14755;DHT22;7469;50.906;6.952;2022-09-09T06:41:27;17.80;99.90
14755;DHT22;7469;50.906;6.952;2022-09-09T06:43:55;17.80;99.90
14755;DHT22;7469;50.906;6.952;2022-09-09T06:46:24;17.80;99.90
14755;DHT22;7469;50.906;6.952;2022-09-09T06:48:55;17.80;99.90
14755;DHT22;7469;50.906;6.952;2022-09-09T06:51:26;17.80;99.90
14755;DHT22;7469;50.906;6.952;2022-09-09T06:53:56;17.70;99.90
14755;DHT22;7469;50.906;6.952;2022-09-09T06:56:28;17.80;99.90
14755;DHT22;7469;50.906;6.952;2022-09-09T06:58:57;17.80;99.90
14755;DHT22;7469;50.906;6.952;2022-09-09T07:01:29;17.80;99.90
14755;DHT22;7469;50.906;6.952;2022-09-09T07:03:59;17.90;99.90
14755;DHT22;7469;50.906;6.952;2022-09-09T07:06:28;17.90;99.90
14755;DHT22;7469;50.906;6.952;2022-09-09T07:08:58;18.00;99.90
14755;DHT22;7469;50.906;6.952;2022-09-09T07:11:29;18.10;99.90
14755;DHT22;7469;50.906;6.952;2022-09-09T07:13:59;18.10;99.90
14755;DHT22;7469;50.906;6.952;2022-09-09T07:16:28;18.20;99.90
14755;DHT22;7469;50.906;6.952;2022-09-09T07:18:58;18.30;99.90
14755;DHT22;7469;50.906;6.952;2022-09-09T07:21:28;18.40;99.90
14755;DHT22;7469;50.906;6.952;2022-09-09T07:23:57;18.50;99.90
14755;DHT22;7469;50.906;6.952;2022-09-09T07:26:26;18.50;99.90
14755;DHT22;7469;50.906;6.952;2022-09-09T07:28:56;18.50;99.90
14755;DHT22;7469;50.906;6.952;2022-09-09T07:31:26;18.60;99.90
14755;DHT22;7469;50.906;6.952;2022-09-09T07:33:54;18.70;99.90
14755;DHT22;7469;50.906;6.952;2022-09-09T07:36:25;18.80;99.90
14755;DHT22;7469;50.906;6.952;2022-09-09T07:39:00;18.90;99.90
14755;DHT22;7469;50.906;6.952;2022-09-09T07:41:30;19.10;99.90
14755;DHT22;7469;50.906;6.952;2022-09-09T07:44:05;19.40;99.90
14755;DHT22;7469;50.906;6.952;2022-09-09T07:46:35;19.70;99.90
14755;DHT22;7469;50.906;6.952;2022-09-09T07:49:03;20.00;99.90
14755;DHT22;7469;50.906;6.952;2022-09-09T07:51:33;20.30;99.90
14755;DHT22;7469;50.906;6.952;2022-09-09T07:54:03;20.40;99.90
14755;DHT22;7469;50.906;6.952;2022-09-09T07:56:32;20.50;99.90
14755;DHT22;7469;50.906;6.952;2022-09-09T07:59:00;20.50;99.90
14755;DHT22;7469;50.906;6.952;2022-09-09T08:01:31;20.60;99.90
14755;DHT22;7469;50.906;6.952;2022-09-09T08:04:00;20.50;99.90
14755;DHT22;7469;50.906;6.952;2022-09-09T08:06:31;20.50;99.90
14755;DHT22;7469;50.906;6.952;2022-09-09T08:09:00;20.50;99.90
14755;DHT22;7469;50.906;6.952;2022-09-09T08:11:29;20.40;99.90
14755;DHT22;7469;50.906;6.952;2022-09-09T08:14:04;20.20;99.90
14755;DHT22;7469;50.906;6.952;2022-09-09T08:16:35;20.10;99.90
14755;DHT22;7469;50.906;6.952;2022-09-09T08:19:04;20.10;99.90
14755;DHT22;7469;50.906;6.952;2022-09-09T08:21:32;20.00;99.90
14755;DHT22;7469;50.906;6.952;2022-09-09T08:24:03;20.00;99.90
14755;DHT22;7469;50.906;6.952;2022-09-09T08:26:34;19.90;99.90
14755;DHT22;7469;50.906;6.952;2022-09-09T08:29:04;20.00;99.90
14755;DHT22;7469;50.906;6.952;2022-09-09T08:31:36;20.20;99.90
14755;DHT22;7469;50.906;6.952;2022-09-09T08:34:05;20.40;99.90
14755;DHT22;7469;50.906;6.952;2022-09-09T08:36:35;20.60;99.90
14755;DHT22;7469;50.906;6.952;2022-09-09T08:39:05;20.80;99.90
14755;DHT22;7469;50.906;6.952;2022-09-09T08:41:57;20.90;99.90
14755;DHT22;7469;50.906;6.952;2022-09-09T08:44:39;21.00;99.90
14755;DHT22;7469;50.906;6.952;2022-09-09T08:47:21;20.90;99.90
14755;DHT22;7469;50.906;6.952;2022-09-09T08:50:07;20.80;99.90
14755;DHT22;7469;50.906;6.952;2022-09-09T08:52:43;20.60;99.90
14755;DHT22;7469;50.906;6.952;2022-09-09T08:55:22;20.50;99.90
14755;DHT22;7469;50.906;6.952;2022-09-09T08:57:54;20.40;99.90
14755;DHT22;7469;50.906;6.952;2022-09-09T09:00:30;20.50;99.90
14755;DHT22;7469;50.906;6.952;2022-09-09T09:03:08;20.80;99.90
14755;DHT22;7469;50.906;6.952;2022-09-09T09:05:46;21.10;99.90
14755;DHT22;7469;50.906;6.952;2022-09-09T09:08:20;21.50;99.90
14755;DHT22;7469;50.906;6.952;2022-09-09T09:10:55;21.80;99.90
14755;DHT22;7469;50.906;6.952;2022-09-09T09:13:30;22.00;99.90
14755;DHT22;7469;50.906;6.952;2022-09-09T09:16:03;22.20;99.90
14755;DHT22;7469;50.906;6.952;2022-09-09T09:18:35;22.40;99.90
14755;DHT22;7469;50.906;6.952;2022-09-09T09:21:10;22.90;99.90
14755;DHT22;7469;50.906;6.952;2022-09-09T09:23:43;23.10;99.90
14755;DHT22;7469;50.906;6.952;2022-09-09T09:26:13;22.90;99.90
14755;DHT22;7469;50.906;6.952;2022-09-09T09:28:41;22.60;99.90
14755;DHT22;7469;50.906;6.952;2022-09-09T09:31:10;22.20;99.90
14755;DHT22;7469;50.906;6.952;2022-09-09T09:33:47;22.00;99.90
14755;DHT22;7469;50.906;6.952;2022-09-09T09:36:16;21.70;99.90
14755;DHT22;7469;50.906;6.952;2022-09-09T09:38:55;21.60;99.90
14755;DHT22;7469;50.906;6.952;2022-09-09T09:41:43;21.50;99.90
14755;DHT22;7469;50.906;6.952;2022-09-09T09:44:23;21.30;99.90
14755;DHT22;7469;50.906;6.952;2022-09-09T09:46:51;21.20;99.90
14755;DHT22;7469;50.906;6.952;2022-09-09T09:49:21;21.10;99.90
14755;DHT22;7469;50.906;6.952;2022-09-09T09:51:49;20.90;99.90
14755;DHT22;7469;50.906;6.952;2022-09-09T09:54:26;20.90;99.90
14755;DHT22;7469;50.906;6.952;2022-09-09T09:56:55;21.10;99.90
14755;DHT22;7469;50.906;6.952;2022-09-09T09:59:34;21.60;99.90
14755;DHT22;7469;50.906;6.952;2022-09-09T10:02:14;21.90;99.90
14755;DHT22;7469;50.906;6.952;2022-09-09T10:04:44;22.10;99.90
14755;DHT22;7469;50.906;6.952;2022-09-09T10:07:17;22.20;99.90
14755;DHT22;7469;50.906;6.952;2022-09-09T10:09:48;22.20;99.90
14755;DHT22;7469;50.906;6.952;2022-09-09T10:12:28;22.20;99.90
14755;DHT22;7469;50.906;6.952;2022-09-09T10:15:02;22.10;99.90
14755;DHT22;7469;50.906;6.952;2022-09-09T10:17:39;22.00;99.90
14755;DHT22;7469;50.906;6.952;2022-09-09T10:20:19;21.80;99.90
14755;DHT22;7469;50.906;6.952;2022-09-09T10:22:52;21.50;99.90
14755;DHT22;7469;50.906;6.952;2022-09-09T10:25:34;21.40;99.90
14755;DHT22;7469;50.906;6.952;2022-09-09T10:28:33;21.40;99.90
14755;DHT22;7469;50.906;6.952;2022-09-09T10:31:15;21.40;99.90
14755;DHT22;7469;50.906;6.952;2022-09-09T10:33:49;21.40;99.90
14755;DHT22;7469;50.906;6.952;2022-09-09T10:36:22;21.40;99.90
14755;DHT22;7469;50.906;6.952;2022-09-09T10:38:57;21.70;99.90
14755;DHT22;7469;50.906;6.952;2022-09-09T10:41:38;21.90;99.90
14755;DHT22;7469;50.906;6.952;2022-09-09T10:44:17;22.10;99.90
14755;DHT22;7469;50.906;6.952;2022-09-09T10:47:00;22.20;99.70
14755;DHT22;7469;50.906;6.952;2022-09-09T10:50:04;22.30;99.40
14755;DHT22;7469;50.906;6.952;2022-09-09T10:52:46;23.40;98.00
14755;DHT22;7469;50.906;6.952;2022-09-09T10:55:20;24.70;96.00
14755;DHT22;7469;50.906;6.952;2022-09-09T10:57:58;26.20;92.80
14755;DHT22;7469;50.906;6.952;2022-09-09T11:00:35;26.00;90.30
14755;DHT22;7469;50.906;6.952;2022-09-09T11:03:06;25.30;89.80
14755;DHT22;7469;50.906;6.952;2022-09-09T11:05:42;24.70;90.60
14755;DHT22;7469;50.906;6.952;2022-09-09T11:08:15;24.50;91.10
14755;DHT22;7469;50.906;6.952;2022-09-09T11:10:48;24.40;91.00
14755;DHT22;7469;50.906;6.952;2022-09-09T11:13:25;24.10;91.10
14755;DHT22;7469;50.906;6.952;2022-09-09T11:15:59;23.90;91.40
14755;DHT22;7469;50.906;6.952;2022-09-09T11:18:29;23.60;91.50
14755;DHT22;7469;50.906;6.952;2022-09-09T11:21:02;23.10;91.90
14755;DHT22;7469;50.906;6.952;2022-09-09T11:23:38;22.70;92.90
14755;DHT22;7469;50.906;6.952;2022-09-09T11:26:12;22.40;93.50
14755;DHT22;7469;50.906;6.952;2022-09-09T11:28:52;22.30;94.00
14755;DHT22;7469;50.906;6.952;2022-09-09T11:31:41;22.10;94.30
14755;DHT22;7469;50.906;6.952;2022-09-09T11:34:31;22.10;94.60
14755;DHT22;7469;50.906;6.952;2022-09-09T11:37:21;22.20;94.70
14755;DHT22;7469;50.906;6.952;2022-09-09T11:40:08;22.20;94.70
14755;DHT22;7469;50.906;6.952;2022-09-09T11:42:37;22.50;94.30
14755;DHT22;7469;50.906;6.952;2022-09-09T11:45:11;22.70;93.80
14755;DHT22;7469;50.906;6.952;2022-09-09T11:47:39;22.80;92.70
14755;DHT22;7469;50.906;6.952;2022-09-09T11:50:09;22.90;92.60
14755;DHT22;7469;50.906;6.952;2022-09-09T11:52:40;23.00;92.60
14755;DHT22;7469;50.906;6.952;2022-09-09T11:55:20;22.90;92.00
14755;DHT22;7469;50.906;6.952;2022-09-09T11:57:57;22.80;92.30
14755;DHT22;7469;50.906;6.952;2022-09-09T12:00:34;22.80;92.60
14755;DHT22;7469;50.906;6.952;2022-09-09T12:03:04;22.70;92.50
14755;DHT22;7469;50.906;6.952;2022-09-09T12:05:38;22.60;92.40
14755;DHT22;7469;50.906;6.952;2022-09-09T12:08:10;22.50;92.40
14755;DHT22;7469;50.906;6.952;2022-09-09T12:10:40;22.40;92.70
14755;DHT22;7469;50.906;6.952;2022-09-09T12:13:16;22.20;93.00
14755;DHT22;7469;50.906;6.952;2022-09-09T12:15:47;22.10;93.20
14755;DHT22;7469;50.906;6.952;2022-09-09T12:18:22;22.10;93.30
14755;DHT22;7469;50.906;6.952;2022-09-09T12:20:55;22.00;93.30
14755;DHT22;7469;50.906;6.952;2022-09-09T12:23:35;22.00;93.20
14755;DHT22;7469;50.906;6.952;2022-09-09T12:26:25;22.10;93.30
14755;DHT22;7469;50.906;6.952;2022-09-09T12:29:16;22.30;93.00
14755;DHT22;7469;50.906;6.952;2022-09-09T12:31:53;22.50;92.30
14755;DHT22;7469;50.906;6.952;2022-09-09T12:34:33;22.60;92.20
14755;DHT22;7469;50.906;6.952;2022-09-09T12:37:06;22.80;92.00
14755;DHT22;7469;50.906;6.952;2022-09-09T12:39:43;22.80;91.70
14755;DHT22;7469;50.906;6.952;2022-09-09T12:42:18;22.60;91.60
14755;DHT22;7469;50.906;6.952;2022-09-09T12:44:54;22.40;92.10
14755;DHT22;7469;50.906;6.952;2022-09-09T12:47:26;22.30;92.40
14755;DHT22;7469;50.906;6.952;2022-09-09T12:49:57;22.30;92.70
14755;DHT22;7469;50.906;6.952;2022-09-09T12:52:29;22.30;93.00
14755;DHT22;7469;50.906;6.952;2022-09-09T12:55:00;22.30;92.90
14755;DHT22;7469;50.906;6.952;2022-09-09T12:57:34;22.30;92.90
14755;DHT22;7469;50.906;6.952;2022-09-09T13:00:12;22.70;92.50
14755;DHT22;7469;50.906;6.952;2022-09-09T13:02:47;23.10;92.10
14755;DHT22;7469;50.906;6.952;2022-09-09T13:05:20;23.20;91.60
14755;DHT22;7469;50.906;6.952;2022-09-09T13:07:48;23.40;91.40
14755;DHT22;7469;50.906;6.952;2022-09-09T13:10:24;23.30;91.20
14755;DHT22;7469;50.906;6.952;2022-09-09T13:13:04;23.20;91.40
14755;DHT22;7469;50.906;6.952;2022-09-09T13:15:33;23.30;91.30
14755;DHT22;7469;50.906;6.952;2022-09-09T13:18:05;23.40;91.20
14755;DHT22;7469;50.906;6.952;2022-09-09T13:20:34;23.50;91.20
14755;DHT22;7469;50.906;6.952;2022-09-09T13:23:03;23.60;91.00
14755;DHT22;7469;50.906;6.952;2022-09-09T13:25:31;23.60;90.30
14755;DHT22;7469;50.906;6.952;2022-09-09T13:28:22;23.60;90.20
14755;DHT22;7469;50.906;6.952;2022-09-09T13:30:58;23.60;90.80
14755;DHT22;7469;50.906;6.952;2022-09-09T13:33:32;23.60;91.20
14755;DHT22;7469;50.906;6.952;2022-09-09T13:36:02;23.40;91.10
14755;DHT22;7469;50.906;6.952;2022-09-09T13:38:33;23.40;91.40
14755;DHT22;7469;50.906;6.952;2022-09-09T13:41:03;23.40;91.80
14755;DHT22;7469;50.906;6.952;2022-09-09T13:43:36;23.70;91.70
14755;DHT22;7469;50.906;6.952;2022-09-09T13:46:24;24.10;91.30
14755;DHT22;7469;50.906;6.952;2022-09-09T13:48:55;24.50;90.50
14755;DHT22;7469;50.906;6.952;2022-09-09T13:51:32;24.60;90.00
14755;DHT22;7469;50.906;6.952;2022-09-09T13:54:00;24.60;89.20
14755;DHT22;7469;50.906;6.952;2022-09-09T13:56:28;24.80;88.70
14755;DHT22;7469;50.906;6.952;2022-09-09T13:58:57;25.00;88.10
14755;DHT22;7469;50.906;6.952;2022-09-09T14:01:25;25.00;87.30
14755;DHT22;7469;50.906;6.952;2022-09-09T14:03:55;24.80;87.60
14755;DHT22;7469;50.906;6.952;2022-09-09T14:06:23;24.50;88.80
14755;DHT22;7469;50.906;6.952;2022-09-09T14:08:51;24.40;88.70
14755;DHT22;7469;50.906;6.952;2022-09-09T14:11:21;24.20;89.60
14755;DHT22;7469;50.906;6.952;2022-09-09T14:13:49;24.00;90.50
14755;DHT22;7469;50.906;6.952;2022-09-09T14:16:19;23.80;90.80
14755;DHT22;7469;50.906;6.952;2022-09-09T14:18:47;23.70;90.70
14755;DHT22;7469;50.906;6.952;2022-09-09T14:21:15;23.70;91.40
14755;DHT22;7469;50.906;6.952;2022-09-09T14:23:43;23.50;91.90
14755;DHT22;7469;50.906;6.952;2022-09-09T14:26:11;23.20;92.30
14755;DHT22;7469;50.906;6.952;2022-09-09T14:28:40;23.10;92.80
14755;DHT22;7469;50.906;6.952;2022-09-09T14:31:22;22.90;93.30
14755;DHT22;7469;50.906;6.952;2022-09-09T14:33:50;22.70;93.70
14755;DHT22;7469;50.906;6.952;2022-09-09T14:36:19;22.50;94.20
14755;DHT22;7469;50.906;6.952;2022-09-09T14:38:47;22.20;94.30
14755;DHT22;7469;50.906;6.952;2022-09-09T14:41:17;22.10;94.80
14755;DHT22;7469;50.906;6.952;2022-09-09T14:43:45;22.00;96.50
14755;DHT22;7469;50.906;6.952;2022-09-09T14:46:15;21.80;99.20
14755;DHT22;7469;50.906;6.952;2022-09-09T14:48:45;21.60;99.90
14755;DHT22;7469;50.906;6.952;2022-09-09T14:51:16;21.30;99.90
14755;DHT22;7469;50.906;6.952;2022-09-09T14:53:46;21.00;99.90
14755;DHT22;7469;50.906;6.952;2022-09-09T14:56:17;20.80;99.90
14755;DHT22;7469;50.906;6.952;2022-09-09T14:58:45;20.80;99.90
14755;DHT22;7469;50.906;6.952;2022-09-09T15:01:14;20.80;99.90
14755;DHT22;7469;50.906;6.952;2022-09-09T15:03:50;21.00;99.90
14755;DHT22;7469;50.906;6.952;2022-09-09T15:06:19;21.10;99.90
14755;DHT22;7469;50.906;6.952;2022-09-09T15:08:47;21.20;99.90
14755;DHT22;7469;50.906;6.952;2022-09-09T15:11:15;21.20;99.90
14755;DHT22;7469;50.906;6.952;2022-09-09T15:13:44;21.10;99.90
14755;DHT22;7469;50.906;6.952;2022-09-09T15:16:13;21.00;99.90
14755;DHT22;7469;50.906;6.952;2022-09-09T15:18:42;20.90;99.90
14755;DHT22;7469;50.906;6.952;2022-09-09T15:21:15;20.90;99.90
14755;DHT22;7469;50.906;6.952;2022-09-09T15:23:43;20.80;99.90
14755;DHT22;7469;50.906;6.952;2022-09-09T15:26:11;20.80;99.90
14755;DHT22;7469;50.906;6.952;2022-09-09T15:28:41;20.70;99.90
14755;DHT22;7469;50.906;6.952;2022-09-09T15:31:14;20.70;99.90
14755;DHT22;7469;50.906;6.952;2022-09-09T15:33:47;20.70;99.90
14755;DHT22;7469;50.906;6.952;2022-09-09T15:36:19;20.60;99.90
14755;DHT22;7469;50.906;6.952;2022-09-09T15:38:47;20.50;99.90
14755;DHT22;7469;50.906;6.952;2022-09-09T15:41:16;20.40;99.90
14755;DHT22;7469;50.906;6.952;2022-09-09T15:43:45;20.30;99.90
14755;DHT22;7469;50.906;6.952;2022-09-09T15:46:26;20.20;99.90
14755;DHT22;7469;50.906;6.952;2022-09-09T15:48:56;20.00;99.90
14755;DHT22;7469;50.906;6.952;2022-09-09T15:51:26;19.80;99.90
14755;DHT22;7469;50.906;6.952;2022-09-09T15:54:09;19.70;99.90
14755;DHT22;7469;50.906;6.952;2022-09-09T15:56:39;19.40;99.90
14755;DHT22;7469;50.906;6.952;2022-09-09T15:59:06;19.10;99.90
14755;DHT22;7469;50.906;6.952;2022-09-09T16:01:35;18.80;99.90
14755;DHT22;7469;50.906;6.952;2022-09-09T16:04:03;18.60;99.90
14755;DHT22;7469;50.906;6.952;2022-09-09T16:06:32;18.40;99.90
14755;DHT22;7469;50.906;6.952;2022-09-09T16:09:03;18.20;99.90
14755;DHT22;7469;50.906;6.952;2022-09-09T16:11:33;18.10;99.90
14755;DHT22;7469;50.906;6.952;2022-09-09T16:14:02;18.00;99.90
14755;DHT22;7469;50.906;6.952;2022-09-09T16:16:30;17.90;99.90